sensor_id;sensor_type;location;lat;lon;timestamp;P1;durP1;ratioP1;P2;durP2;ratioP2
72053;SDS011;59918;51.280;7.950;2023-10-19T00:00:02;11.48;;;8.73;;
72053;SDS011;59918;51.280;7.950;2023-10-19T00:02:27;12.10;;;7.88;;
72053;SDS011;59918;51.280;7.950;2023-10-19T00:04:52;10.18;;;8.25;;
72053;SDS011;59918;51.280;7.950;2023-10-19T00:07:18;9.43;;;7.13;;
72053;SDS011;59918;51.280;7.950;2023-10-19T00:09:43;8.68;;;6.97;;
72053;SDS011;59918;51.280;7.950;2023-10-19T00:12:08;12.57;;;7.75;;
72053;SDS011;59918;51.280;7.950;2023-10-19T00:14:33;8.63;;;6.53;;
72053;SDS011;59918;51.280;7.950;2023-10-19T00:16:59;6.10;;;5.50;;
72053;SDS011;59918;51.280;7.950;2023-10-19T00:19:24;7.80;;;5.93;;
72053;SDS011;59918;51.280;7.950;2023-10-19T00:21:49;6.22;;;5.57;;
72053;SDS011;59918;51.280;7.950;2023-10-19T00:24:14;6.45;;;5.85;;
72053;SDS011;59918;51.280;7.950;2023-10-19T00:26:40;8.13;;;6.30;;
72053;SDS011;59918;51.280;7.950;2023-10-19T00:29:05;8.35;;;6.68;;
72053;SDS011;59918;51.280;7.950;2023-10-19T00:31:30;7.55;;;6.80;;
72053;SDS011;59918;51.280;7.950;2023-10-19T00:33:55;7.53;;;6.55;;
72053;SDS011;59918;51.280;7.950;2023-10-19T00:36:21;7.00;;;6.30;;
72053;SDS011;59918;51.280;7.950;2023-10-19T00:38:47;8.55;;;6.60;;
72053;SDS011;59918;51.280;7.950;2023-10-19T00:41:12;8.32;;;7.38;;
72053;SDS011;59918;51.280;7.950;2023-10-19T00:43:39;8.25;;;6.13;;
72053;SDS011;59918;51.280;7.950;2023-10-19T00:46:08;6.32;;;5.72;;
72053;SDS011;59918;51.280;7.950;2023-10-19T00:48:33;7.25;;;6.55;;
72053;SDS011;59918;51.280;7.950;2023-10-19T00:50:59;8.13;;;6.13;;
72053;SDS011;59918;51.280;7.950;2023-10-19T00:53:24;6.80;;;5.88;;
72053;SDS011;59918;51.280;7.950;2023-10-19T00:55:50;6.75;;;5.93;;
72053;SDS011;59918;51.280;7.950;2023-10-19T00:58:15;5.20;;;4.75;;
72053;SDS011;59918;51.280;7.950;2023-10-19T01:00:40;5.63;;;5.10;;
72053;SDS011;59918;51.280;7.950;2023-10-19T01:03:06;5.05;;;4.65;;
72053;SDS011;59918;51.280;7.950;2023-10-19T01:05:32;5.13;;;4.70;;
72053;SDS011;59918;51.280;7.950;2023-10-19T01:07:58;5.22;;;4.82;;
72053;SDS011;59918;51.280;7.950;2023-10-19T01:10:23;5.25;;;4.50;;
72053;SDS011;59918;51.280;7.950;2023-10-19T01:12:48;5.57;;;5.07;;
72053;SDS011;59918;51.280;7.950;2023-10-19T01:15:15;6.10;;;4.55;;
72053;SDS011;59918;51.280;7.950;2023-10-19T01:17:50;5.95;;;4.88;;
72053;SDS011;59918;51.280;7.950;2023-10-19T01:20:17;5.22;;;4.57;;
72053;SDS011;59918;51.280;7.950;2023-10-19T01:25:13;6.80;;;5.57;;
72053;SDS011;59918;51.280;7.950;2023-10-19T01:27:38;6.95;;;5.85;;
72053;SDS011;59918;51.280;7.950;2023-10-19T01:30:03;7.43;;;5.47;;
72053;SDS011;59918;51.280;7.950;2023-10-19T01:32:29;6.57;;;5.97;;
72053;SDS011;59918;51.280;7.950;2023-10-19T01:34:54;6.68;;;5.63;;
72053;SDS011;59918;51.280;7.950;2023-10-19T01:37:20;6.05;;;5.55;;
72053;SDS011;59918;51.280;7.950;2023-10-19T01:39:45;6.07;;;5.47;;
72053;SDS011;59918;51.280;7.950;2023-10-19T01:42:10;6.75;;;6.05;;
72053;SDS011;59918;51.280;7.950;2023-10-19T01:44:35;9.43;;;6.68;;
72053;SDS011;59918;51.280;7.950;2023-10-19T01:47:01;10.20;;;6.57;;
72053;SDS011;59918;51.280;7.950;2023-10-19T01:49:26;7.53;;;6.75;;
72053;SDS011;59918;51.280;7.950;2023-10-19T01:51:52;8.10;;;6.93;;
72053;SDS011;59918;51.280;7.950;2023-10-19T01:54:17;9.20;;;7.45;;
72053;SDS011;59918;51.280;7.950;2023-10-19T01:56:43;10.20;;;8.40;;
72053;SDS011;59918;51.280;7.950;2023-10-19T01:59:08;10.77;;;7.82;;
72053;SDS011;59918;51.280;7.950;2023-10-19T02:01:33;10.20;;;8.25;;
72053;SDS011;59918;51.280;7.950;2023-10-19T02:03:59;10.45;;;7.97;;
72053;SDS011;59918;51.280;7.950;2023-10-19T02:06:26;8.98;;;7.50;;
72053;SDS011;59918;51.280;7.950;2023-10-19T02:11:35;10.05;;;7.95;;
72053;SDS011;59918;51.280;7.950;2023-10-19T02:14:00;11.07;;;8.60;;
72053;SDS011;59918;51.280;7.950;2023-10-19T02:16:26;10.30;;;8.73;;
72053;SDS011;59918;51.280;7.950;2023-10-19T02:18:51;10.85;;;8.60;;
72053;SDS011;59918;51.280;7.950;2023-10-19T02:21:17;10.48;;;8.88;;
72053;SDS011;59918;51.280;7.950;2023-10-19T02:23:42;12.05;;;9.00;;
72053;SDS011;59918;51.280;7.950;2023-10-19T02:26:08;11.77;;;8.80;;
72053;SDS011;59918;51.280;7.950;2023-10-19T02:28:33;10.23;;;8.82;;
72053;SDS011;59918;51.280;7.950;2023-10-19T02:30:58;9.57;;;7.93;;
72053;SDS011;59918;51.280;7.950;2023-10-19T02:33:24;10.10;;;8.00;;
72053;SDS011;59918;51.280;7.950;2023-10-19T02:35:49;11.35;;;9.40;;
72053;SDS011;59918;51.280;7.950;2023-10-19T02:38:14;10.68;;;8.52;;
72053;SDS011;59918;51.280;7.950;2023-10-19T02:40:39;10.25;;;8.68;;
72053;SDS011;59918;51.280;7.950;2023-10-19T02:43:05;9.43;;;8.27;;
72053;SDS011;59918;51.280;7.950;2023-10-19T02:45:30;10.98;;;8.77;;
72053;SDS011;59918;51.280;7.950;2023-10-19T02:47:55;12.98;;;9.40;;
72053;SDS011;59918;51.280;7.950;2023-10-19T02:50:20;12.23;;;9.60;;
72053;SDS011;59918;51.280;7.950;2023-10-19T02:52:46;10.20;;;8.20;;
72053;SDS011;59918;51.280;7.950;2023-10-19T02:55:11;11.07;;;8.88;;
72053;SDS011;59918;51.280;7.950;2023-10-19T02:57:36;12.65;;;9.50;;
72053;SDS011;59918;51.280;7.950;2023-10-19T03:00:02;13.38;;;10.20;;
72053;SDS011;59918;51.280;7.950;2023-10-19T03:02:30;13.52;;;9.18;;
72053;SDS011;59918;51.280;7.950;2023-10-19T03:04:57;13.38;;;10.32;;
72053;SDS011;59918;51.280;7.950;2023-10-19T03:07:22;16.50;;;10.40;;
72053;SDS011;59918;51.280;7.950;2023-10-19T03:09:48;16.35;;;10.82;;
72053;SDS011;59918;51.280;7.950;2023-10-19T03:12:13;14.43;;;10.73;;
72053;SDS011;59918;51.280;7.950;2023-10-19T03:14:38;15.88;;;11.27;;
72053;SDS011;59918;51.280;7.950;2023-10-19T03:17:03;15.15;;;9.98;;
72053;SDS011;59918;51.280;7.950;2023-10-19T03:19:29;15.75;;;9.50;;
72053;SDS011;59918;51.280;7.950;2023-10-19T03:21:54;13.85;;;10.05;;
72053;SDS011;59918;51.280;7.950;2023-10-19T03:24:19;15.82;;;10.77;;
72053;SDS011;59918;51.280;7.950;2023-10-19T03:26:45;12.35;;;9.32;;
72053;SDS011;59918;51.280;7.950;2023-10-19T03:29:10;14.02;;;9.38;;
72053;SDS011;59918;51.280;7.950;2023-10-19T03:31:35;12.13;;;9.25;;
72053;SDS011;59918;51.280;7.950;2023-10-19T03:34:00;13.68;;;9.93;;
72053;SDS011;59918;51.280;7.950;2023-10-19T03:36:26;12.32;;;9.88;;
72053;SDS011;59918;51.280;7.950;2023-10-19T03:38:51;14.95;;;10.00;;
72053;SDS011;59918;51.280;7.950;2023-10-19T03:41:17;11.68;;;9.38;;
72053;SDS011;59918;51.280;7.950;2023-10-19T03:43:43;12.55;;;9.05;;
72053;SDS011;59918;51.280;7.950;2023-10-19T03:46:08;11.70;;;9.63;;
72053;SDS011;59918;51.280;7.950;2023-10-19T03:48:33;11.43;;;9.13;;
72053;SDS011;59918;51.280;7.950;2023-10-19T03:50:58;13.07;;;9.18;;
72053;SDS011;59918;51.280;7.950;2023-10-19T03:53:24;12.77;;;9.05;;
72053;SDS011;59918;51.280;7.950;2023-10-19T03:55:49;13.98;;;9.57;;
72053;SDS011;59918;51.280;7.950;2023-10-19T03:58:14;11.13;;;8.82;;
72053;SDS011;59918;51.280;7.950;2023-10-19T04:00:40;15.70;;;9.52;;
72053;SDS011;59918;51.280;7.950;2023-10-19T04:03:05;14.20;;;8.60;;
72053;SDS011;59918;51.280;7.950;2023-10-19T04:05:30;13.88;;;8.95;;
72053;SDS011;59918;51.280;7.950;2023-10-19T04:07:55;12.52;;;9.15;;
72053;SDS011;59918;51.280;7.950;2023-10-19T04:10:21;13.45;;;8.90;;
72053;SDS011;59918;51.280;7.950;2023-10-19T04:12:47;14.60;;;9.77;;
72053;SDS011;59918;51.280;7.950;2023-10-19T04:15:12;15.68;;;10.55;;
72053;SDS011;59918;51.280;7.950;2023-10-19T04:17:37;17.77;;;10.82;;
72053;SDS011;59918;51.280;7.950;2023-10-19T04:20:02;18.05;;;10.80;;
72053;SDS011;59918;51.280;7.950;2023-10-19T04:22:28;17.08;;;10.05;;
72053;SDS011;59918;51.280;7.950;2023-10-19T04:24:55;24.88;;;11.35;;
72053;SDS011;59918;51.280;7.950;2023-10-19T04:27:20;18.98;;;10.77;;
72053;SDS011;59918;51.280;7.950;2023-10-19T04:29:46;19.60;;;11.50;;
72053;SDS011;59918;51.280;7.950;2023-10-19T04:32:11;20.25;;;12.52;;
72053;SDS011;59918;51.280;7.950;2023-10-19T04:34:36;22.38;;;12.02;;
72053;SDS011;59918;51.280;7.950;2023-10-19T04:37:02;21.42;;;11.18;;
72053;SDS011;59918;51.280;7.950;2023-10-19T04:39:27;19.77;;;11.25;;
72053;SDS011;59918;51.280;7.950;2023-10-19T04:41:53;23.52;;;13.32;;
72053;SDS011;59918;51.280;7.950;2023-10-19T04:44:18;23.13;;;12.20;;
72053;SDS011;59918;51.280;7.950;2023-10-19T04:46:43;20.90;;;12.93;;
72053;SDS011;59918;51.280;7.950;2023-10-19T04:49:08;18.80;;;12.48;;
72053;SDS011;59918;51.280;7.950;2023-10-19T04:51:34;21.95;;;12.05;;
72053;SDS011;59918;51.280;7.950;2023-10-19T04:54:00;22.05;;;12.25;;
72053;SDS011;59918;51.280;7.950;2023-10-19T04:56:25;17.67;;;11.60;;
72053;SDS011;59918;51.280;7.950;2023-10-19T04:58:50;22.00;;;12.10;;
72053;SDS011;59918;51.280;7.950;2023-10-19T05:01:16;18.13;;;12.02;;
72053;SDS011;59918;51.280;7.950;2023-10-19T05:03:41;18.48;;;11.98;;
72053;SDS011;59918;51.280;7.950;2023-10-19T05:06:06;18.45;;;11.93;;
72053;SDS011;59918;51.280;7.950;2023-10-19T05:08:32;18.45;;;12.27;;
72053;SDS011;59918;51.280;7.950;2023-10-19T05:10:58;18.85;;;12.05;;
72053;SDS011;59918;51.280;7.950;2023-10-19T05:13:23;17.88;;;11.60;;
72053;SDS011;59918;51.280;7.950;2023-10-19T05:15:49;16.88;;;10.80;;
72053;SDS011;59918;51.280;7.950;2023-10-19T05:18:17;15.65;;;11.07;;
72053;SDS011;59918;51.280;7.950;2023-10-19T05:20:42;20.88;;;11.85;;
72053;SDS011;59918;51.280;7.950;2023-10-19T05:23:08;18.80;;;11.80;;
72053;SDS011;59918;51.280;7.950;2023-10-19T05:25:33;17.52;;;12.30;;
72053;SDS011;59918;51.280;7.950;2023-10-19T05:27:59;14.88;;;11.00;;
72053;SDS011;59918;51.280;7.950;2023-10-19T05:30:24;21.02;;;12.25;;
72053;SDS011;59918;51.280;7.950;2023-10-19T05:32:50;19.33;;;11.98;;
72053;SDS011;59918;51.280;7.950;2023-10-19T05:35:16;19.88;;;11.77;;
72053;SDS011;59918;51.280;7.950;2023-10-19T05:37:41;18.98;;;12.23;;
72053;SDS011;59918;51.280;7.950;2023-10-19T05:40:06;16.67;;;11.65;;
72053;SDS011;59918;51.280;7.950;2023-10-19T05:42:32;19.67;;;12.50;;
72053;SDS011;59918;51.280;7.950;2023-10-19T05:44:57;19.83;;;12.90;;
72053;SDS011;59918;51.280;7.950;2023-10-19T05:47:25;17.27;;;11.73;;
72053;SDS011;59918;51.280;7.950;2023-10-19T05:49:50;16.15;;;11.48;;
72053;SDS011;59918;51.280;7.950;2023-10-19T05:52:15;20.23;;;11.77;;
72053;SDS011;59918;51.280;7.950;2023-10-19T05:54:40;16.52;;;10.55;;
72053;SDS011;59918;51.280;7.950;2023-10-19T05:57:06;18.80;;;11.43;;
72053;SDS011;59918;51.280;7.950;2023-10-19T05:59:31;21.20;;;11.43;;
72053;SDS011;59918;51.280;7.950;2023-10-19T06:01:56;19.92;;;11.25;;
72053;SDS011;59918;51.280;7.950;2023-10-19T06:04:21;16.27;;;10.80;;
72053;SDS011;59918;51.280;7.950;2023-10-19T06:06:47;15.40;;;10.55;;
72053;SDS011;59918;51.280;7.950;2023-10-19T06:09:12;18.23;;;10.60;;
72053;SDS011;59918;51.280;7.950;2023-10-19T06:11:38;16.23;;;10.55;;
72053;SDS011;59918;51.280;7.950;2023-10-19T06:14:03;14.57;;;9.98;;
72053;SDS011;59918;51.280;7.950;2023-10-19T06:16:29;17.70;;;10.57;;
72053;SDS011;59918;51.280;7.950;2023-10-19T06:18:54;16.77;;;11.77;;
72053;SDS011;59918;51.280;7.950;2023-10-19T06:21:20;15.20;;;10.82;;
72053;SDS011;59918;51.280;7.950;2023-10-19T06:23:45;22.58;;;12.35;;
72053;SDS011;59918;51.280;7.950;2023-10-19T06:26:10;16.95;;;10.93;;
72053;SDS011;59918;51.280;7.950;2023-10-19T06:28:36;19.98;;;10.70;;
72053;SDS011;59918;51.280;7.950;2023-10-19T06:31:01;16.35;;;10.43;;
72053;SDS011;59918;51.280;7.950;2023-10-19T06:33:26;13.13;;;10.20;;
72053;SDS011;59918;51.280;7.950;2023-10-19T06:35:52;17.40;;;10.75;;
72053;SDS011;59918;51.280;7.950;2023-10-19T06:38:17;13.88;;;10.43;;
72053;SDS011;59918;51.280;7.950;2023-10-19T06:40:42;17.50;;;10.45;;
72053;SDS011;59918;51.280;7.950;2023-10-19T06:43:07;15.25;;;10.73;;
72053;SDS011;59918;51.280;7.950;2023-10-19T06:45:33;15.05;;;10.05;;
72053;SDS011;59918;51.280;7.950;2023-10-19T06:47:58;14.88;;;9.32;;
72053;SDS011;59918;51.280;7.950;2023-10-19T06:50:24;11.52;;;8.95;;
72053;SDS011;59918;51.280;7.950;2023-10-19T06:52:49;11.88;;;9.23;;
72053;SDS011;59918;51.280;7.950;2023-10-19T06:55:15;15.05;;;9.25;;
72053;SDS011;59918;51.280;7.950;2023-10-19T06:57:42;13.25;;;9.20;;
72053;SDS011;59918;51.280;7.950;2023-10-19T07:00:07;10.77;;;8.63;;
72053;SDS011;59918;51.280;7.950;2023-10-19T07:02:33;12.63;;;9.38;;
72053;SDS011;59918;51.280;7.950;2023-10-19T07:04:58;12.85;;;8.25;;
72053;SDS011;59918;51.280;7.950;2023-10-19T07:07:24;13.35;;;8.55;;
72053;SDS011;59918;51.280;7.950;2023-10-19T07:09:49;12.13;;;8.13;;
72053;SDS011;59918;51.280;7.950;2023-10-19T07:12:16;11.38;;;8.45;;
72053;SDS011;59918;51.280;7.950;2023-10-19T07:14:41;10.32;;;7.75;;
72053;SDS011;59918;51.280;7.950;2023-10-19T07:17:06;11.07;;;8.05;;
72053;SDS011;59918;51.280;7.950;2023-10-19T07:19:31;12.20;;;8.27;;
72053;SDS011;59918;51.280;7.950;2023-10-19T07:21:57;12.27;;;9.07;;
72053;SDS011;59918;51.280;7.950;2023-10-19T07:24:24;10.35;;;8.35;;
72053;SDS011;59918;51.280;7.950;2023-10-19T07:26:50;12.88;;;8.60;;
72053;SDS011;59918;51.280;7.950;2023-10-19T07:29:15;14.65;;;8.73;;
72053;SDS011;59918;51.280;7.950;2023-10-19T07:31:41;14.77;;;8.93;;
72053;SDS011;59918;51.280;7.950;2023-10-19T07:34:06;10.88;;;7.57;;
72053;SDS011;59918;51.280;7.950;2023-10-19T07:36:31;10.45;;;8.50;;
72053;SDS011;59918;51.280;7.950;2023-10-19T07:38:56;9.88;;;7.40;;
72053;SDS011;59918;51.280;7.950;2023-10-19T07:41:22;10.60;;;7.72;;
72053;SDS011;59918;51.280;7.950;2023-10-19T07:43:47;10.30;;;7.72;;
72053;SDS011;59918;51.280;7.950;2023-10-19T07:46:12;9.88;;;7.15;;
72053;SDS011;59918;51.280;7.950;2023-10-19T07:48:38;9.63;;;7.55;;
72053;SDS011;59918;51.280;7.950;2023-10-19T07:51:03;11.20;;;7.07;;
72053;SDS011;59918;51.280;7.950;2023-10-19T07:53:28;10.20;;;7.13;;
72053;SDS011;59918;51.280;7.950;2023-10-19T07:55:54;13.45;;;8.20;;
72053;SDS011;59918;51.280;7.950;2023-10-19T07:58:19;12.88;;;8.27;;
72053;SDS011;59918;51.280;7.950;2023-10-19T08:00:44;12.52;;;8.52;;
72053;SDS011;59918;51.280;7.950;2023-10-19T08:03:09;10.48;;;7.63;;
72053;SDS011;59918;51.280;7.950;2023-10-19T08:05:41;11.63;;;7.90;;
72053;SDS011;59918;51.280;7.950;2023-10-19T08:08:06;15.33;;;7.93;;
72053;SDS011;59918;51.280;7.950;2023-10-19T08:10:31;11.00;;;7.45;;
72053;SDS011;59918;51.280;7.950;2023-10-19T08:12:57;11.45;;;7.55;;
72053;SDS011;59918;51.280;7.950;2023-10-19T08:15:22;11.15;;;8.38;;
72053;SDS011;59918;51.280;7.950;2023-10-19T08:17:49;10.07;;;7.80;;
72053;SDS011;59918;51.280;7.950;2023-10-19T08:20:15;13.93;;;7.80;;
72053;SDS011;59918;51.280;7.950;2023-10-19T08:22:40;11.38;;;7.82;;
72053;SDS011;59918;51.280;7.950;2023-10-19T08:25:06;10.00;;;7.88;;
72053;SDS011;59918;51.280;7.950;2023-10-19T08:27:31;8.20;;;6.43;;
72053;SDS011;59918;51.280;7.950;2023-10-19T08:29:57;9.80;;;7.35;;
72053;SDS011;59918;51.280;7.950;2023-10-19T08:32:22;9.50;;;6.32;;
72053;SDS011;59918;51.280;7.950;2023-10-19T08:34:47;11.43;;;6.57;;
72053;SDS011;59918;51.280;7.950;2023-10-19T08:37:12;9.75;;;6.38;;
72053;SDS011;59918;51.280;7.950;2023-10-19T08:39:38;7.40;;;6.22;;
72053;SDS011;59918;51.280;7.950;2023-10-19T08:42:03;7.80;;;5.70;;
72053;SDS011;59918;51.280;7.950;2023-10-19T08:44:30;7.13;;;6.18;;
72053;SDS011;59918;51.280;7.950;2023-10-19T08:46:55;9.02;;;5.85;;
72053;SDS011;59918;51.280;7.950;2023-10-19T08:49:21;8.23;;;5.70;;
72053;SDS011;59918;51.280;7.950;2023-10-19T08:51:46;8.40;;;5.68;;
72053;SDS011;59918;51.280;7.950;2023-10-19T08:54:12;11.80;;;5.30;;
72053;SDS011;59918;51.280;7.950;2023-10-19T08:56:38;6.47;;;5.63;;
72053;SDS011;59918;51.280;7.950;2023-10-19T08:59:04;8.80;;;5.13;;
72053;SDS011;59918;51.280;7.950;2023-10-19T09:01:29;7.50;;;5.15;;
72053;SDS011;59918;51.280;7.950;2023-10-19T09:03:58;9.32;;;5.32;;
72053;SDS011;59918;51.280;7.950;2023-10-19T09:06:24;6.22;;;4.72;;
72053;SDS011;59918;51.280;7.950;2023-10-19T09:08:49;6.22;;;4.70;;
72053;SDS011;59918;51.280;7.950;2023-10-19T09:11:15;10.27;;;4.75;;
72053;SDS011;59918;51.280;7.950;2023-10-19T09:16:09;7.13;;;3.95;;
72053;SDS011;59918;51.280;7.950;2023-10-19T09:18:34;6.20;;;4.90;;
72053;SDS011;59918;51.280;7.950;2023-10-19T09:21:00;7.70;;;4.57;;
72053;SDS011;59918;51.280;7.950;2023-10-19T09:23:25;9.43;;;4.10;;
72053;SDS011;59918;51.280;7.950;2023-10-19T09:25:51;7.25;;;4.32;;
72053;SDS011;59918;51.280;7.950;2023-10-19T09:28:16;6.68;;;3.42;;
72053;SDS011;59918;51.280;7.950;2023-10-19T09:30:41;12.82;;;8.40;;
72053;SDS011;59918;51.280;7.950;2023-10-19T09:33:08;7.53;;;3.33;;
72053;SDS011;59918;51.280;7.950;2023-10-19T09:35:34;5.60;;;3.70;;
72053;SDS011;59918;51.280;7.950;2023-10-19T09:38:00;6.15;;;4.05;;
72053;SDS011;59918;51.280;7.950;2023-10-19T09:40:25;4.75;;;3.25;;
72053;SDS011;59918;51.280;7.950;2023-10-19T09:42:53;5.20;;;3.13;;
72053;SDS011;59918;51.280;7.950;2023-10-19T09:45:23;7.90;;;4.05;;
72053;SDS011;59918;51.280;7.950;2023-10-19T09:47:53;8.35;;;2.85;;
72053;SDS011;59918;51.280;7.950;2023-10-19T09:50:23;5.50;;;3.20;;
72053;SDS011;59918;51.280;7.950;2023-10-19T09:52:49;6.10;;;3.25;;
72053;SDS011;59918;51.280;7.950;2023-10-19T09:58:02;4.88;;;2.70;;
72053;SDS011;59918;51.280;7.950;2023-10-19T10:00:29;4.90;;;2.42;;
72053;SDS011;59918;51.280;7.950;2023-10-19T10:02:54;8.93;;;3.00;;
72053;SDS011;59918;51.280;7.950;2023-10-19T10:10:50;3.58;;;2.10;;
72053;SDS011;59918;51.280;7.950;2023-10-19T10:15:53;2.35;;;1.85;;
72053;SDS011;59918;51.280;7.950;2023-10-19T10:18:19;6.07;;;2.40;;
72053;SDS011;59918;51.280;7.950;2023-10-19T10:20:45;5.72;;;2.20;;
72053;SDS011;59918;51.280;7.950;2023-10-19T10:23:17;6.75;;;2.22;;
72053;SDS011;59918;51.280;7.950;2023-10-19T10:25:47;4.03;;;2.03;;
72053;SDS011;59918;51.280;7.950;2023-10-19T10:28:12;4.90;;;1.50;;
72053;SDS011;59918;51.280;7.950;2023-10-19T10:31:01;7.85;;;1.73;;
72053;SDS011;59918;51.280;7.950;2023-10-19T10:36:07;5.25;;;1.58;;
72053;SDS011;59918;51.280;7.950;2023-10-19T10:38:36;4.72;;;2.00;;
72053;SDS011;59918;51.280;7.950;2023-10-19T10:41:01;3.60;;;1.63;;
72053;SDS011;59918;51.280;7.950;2023-10-19T10:43:27;6.85;;;1.67;;
72053;SDS011;59918;51.280;7.950;2023-10-19T10:45:52;5.57;;;2.22;;
72053;SDS011;59918;51.280;7.950;2023-10-19T10:48:18;4.88;;;2.03;;
72053;SDS011;59918;51.280;7.950;2023-10-19T10:50:43;5.78;;;1.30;;
72053;SDS011;59918;51.280;7.950;2023-10-19T10:53:10;4.68;;;1.23;;
72053;SDS011;59918;51.280;7.950;2023-10-19T10:55:35;6.05;;;1.50;;
72053;SDS011;59918;51.280;7.950;2023-10-19T10:58:01;7.07;;;1.60;;
72053;SDS011;59918;51.280;7.950;2023-10-19T11:00:26;6.35;;;1.75;;
72053;SDS011;59918;51.280;7.950;2023-10-19T11:03:02;3.60;;;1.58;;
72053;SDS011;59918;51.280;7.950;2023-10-19T11:05:28;4.97;;;1.27;;
72053;SDS011;59918;51.280;7.950;2023-10-19T11:08:07;5.40;;;1.65;;
72053;SDS011;59918;51.280;7.950;2023-10-19T11:10:33;2.72;;;1.40;;
72053;SDS011;59918;51.280;7.950;2023-10-19T11:13:08;3.97;;;1.15;;
72053;SDS011;59918;51.280;7.950;2023-10-19T11:15:35;4.80;;;1.38;;
72053;SDS011;59918;51.280;7.950;2023-10-19T11:18:01;6.32;;;2.17;;
72053;SDS011;59918;51.280;7.950;2023-10-19T11:20:26;4.53;;;1.55;;
72053;SDS011;59918;51.280;7.950;2023-10-19T11:22:52;5.40;;;1.00;;
72053;SDS011;59918;51.280;7.950;2023-10-19T11:25:23;5.63;;;1.75;;
72053;SDS011;59918;51.280;7.950;2023-10-19T11:27:49;6.82;;;1.38;;
72053;SDS011;59918;51.280;7.950;2023-10-19T11:30:28;4.25;;;1.52;;
72053;SDS011;59918;51.280;7.950;2023-10-19T11:32:55;2.33;;;1.23;;
72053;SDS011;59918;51.280;7.950;2023-10-19T11:35:20;4.65;;;1.45;;
72053;SDS011;59918;51.280;7.950;2023-10-19T11:37:49;4.30;;;1.27;;
72053;SDS011;59918;51.280;7.950;2023-10-19T11:40:15;4.15;;;1.30;;
72053;SDS011;59918;51.280;7.950;2023-10-19T11:42:40;6.10;;;1.50;;
72053;SDS011;59918;51.280;7.950;2023-10-19T11:45:06;5.65;;;1.60;;
72053;SDS011;59918;51.280;7.950;2023-10-19T11:47:32;3.55;;;1.25;;
72053;SDS011;59918;51.280;7.950;2023-10-19T11:49:57;4.88;;;1.17;;
72053;SDS011;59918;51.280;7.950;2023-10-19T11:52:22;5.63;;;1.30;;
72053;SDS011;59918;51.280;7.950;2023-10-19T11:54:47;7.25;;;1.42;;
72053;SDS011;59918;51.280;7.950;2023-10-19T11:57:13;2.20;;;1.15;;
72053;SDS011;59918;51.280;7.950;2023-10-19T11:59:38;6.47;;;1.55;;
72053;SDS011;59918;51.280;7.950;2023-10-19T12:02:03;6.40;;;1.30;;
72053;SDS011;59918;51.280;7.950;2023-10-19T12:04:28;6.07;;;1.30;;
72053;SDS011;59918;51.280;7.950;2023-10-19T12:06:54;5.78;;;1.52;;
72053;SDS011;59918;51.280;7.950;2023-10-19T12:09:19;8.35;;;1.30;;
72053;SDS011;59918;51.280;7.950;2023-10-19T12:11:44;4.07;;;1.63;;
72053;SDS011;59918;51.280;7.950;2023-10-19T12:14:12;4.03;;;1.40;;
72053;SDS011;59918;51.280;7.950;2023-10-19T12:16:37;4.05;;;1.55;;
72053;SDS011;59918;51.280;7.950;2023-10-19T12:19:02;3.55;;;1.40;;
72053;SDS011;59918;51.280;7.950;2023-10-19T12:21:28;3.10;;;1.35;;
72053;SDS011;59918;51.280;7.950;2023-10-19T12:23:53;6.38;;;1.88;;
72053;SDS011;59918;51.280;7.950;2023-10-19T12:26:18;10.07;;;1.93;;
72053;SDS011;59918;51.280;7.950;2023-10-19T12:28:43;4.78;;;1.27;;
72053;SDS011;59918;51.280;7.950;2023-10-19T12:31:09;3.80;;;1.30;;
72053;SDS011;59918;51.280;7.950;2023-10-19T12:33:35;4.35;;;1.48;;
72053;SDS011;59918;51.280;7.950;2023-10-19T12:36:00;3.72;;;1.58;;
72053;SDS011;59918;51.280;7.950;2023-10-19T12:38:26;6.85;;;1.30;;
72053;SDS011;59918;51.280;7.950;2023-10-19T12:40:51;3.63;;;1.50;;
72053;SDS011;59918;51.280;7.950;2023-10-19T12:43:17;6.88;;;1.48;;
72053;SDS011;59918;51.280;7.950;2023-10-19T12:45:43;4.90;;;1.60;;
72053;SDS011;59918;51.280;7.950;2023-10-19T12:48:10;5.35;;;1.52;;
72053;SDS011;59918;51.280;7.950;2023-10-19T12:50:35;4.45;;;1.52;;
72053;SDS011;59918;51.280;7.950;2023-10-19T12:53:01;4.47;;;1.23;;
72053;SDS011;59918;51.280;7.950;2023-10-19T12:55:27;8.07;;;1.60;;
72053;SDS011;59918;51.280;7.950;2023-10-19T12:57:52;5.70;;;1.48;;
72053;SDS011;59918;51.280;7.950;2023-10-19T13:00:18;4.85;;;1.48;;
72053;SDS011;59918;51.280;7.950;2023-10-19T13:02:44;3.70;;;1.30;;
72053;SDS011;59918;51.280;7.950;2023-10-19T13:05:09;3.42;;;1.60;;
72053;SDS011;59918;51.280;7.950;2023-10-19T13:07:34;6.65;;;1.42;;
72053;SDS011;59918;51.280;7.950;2023-10-19T13:09:59;5.38;;;1.73;;
72053;SDS011;59918;51.280;7.950;2023-10-19T13:12:24;2.75;;;1.30;;
72053;SDS011;59918;51.280;7.950;2023-10-19T13:14:50;6.18;;;1.63;;
72053;SDS011;59918;51.280;7.950;2023-10-19T13:17:15;7.57;;;2.20;;
72053;SDS011;59918;51.280;7.950;2023-10-19T13:19:40;6.32;;;1.73;;
72053;SDS011;59918;51.280;7.950;2023-10-19T13:22:05;6.85;;;1.90;;
72053;SDS011;59918;51.280;7.950;2023-10-19T13:24:31;8.85;;;1.70;;
72053;SDS011;59918;51.280;7.950;2023-10-19T13:26:56;7.72;;;1.67;;
72053;SDS011;59918;51.280;7.950;2023-10-19T13:29:21;6.10;;;1.48;;
72053;SDS011;59918;51.280;7.950;2023-10-19T13:31:46;7.07;;;1.58;;
72053;SDS011;59918;51.280;7.950;2023-10-19T13:34:12;6.68;;;1.92;;
72053;SDS011;59918;51.280;7.950;2023-10-19T13:36:37;9.02;;;1.60;;
72053;SDS011;59918;51.280;7.950;2023-10-19T13:39:02;7.22;;;1.90;;
72053;SDS011;59918;51.280;7.950;2023-10-19T13:41:28;6.75;;;1.85;;
72053;SDS011;59918;51.280;7.950;2023-10-19T13:43:53;9.18;;;2.08;;
72053;SDS011;59918;51.280;7.950;2023-10-19T13:46:19;8.10;;;2.00;;
72053;SDS011;59918;51.280;7.950;2023-10-19T13:48:44;8.57;;;1.92;;
72053;SDS011;59918;51.280;7.950;2023-10-19T13:51:09;5.95;;;1.88;;
72053;SDS011;59918;51.280;7.950;2023-10-19T13:53:34;7.78;;;2.20;;
72053;SDS011;59918;51.280;7.950;2023-10-19T13:56:00;8.13;;;2.05;;
72053;SDS011;59918;51.280;7.950;2023-10-19T13:58:25;8.60;;;2.30;;
72053;SDS011;59918;51.280;7.950;2023-10-19T14:00:50;8.93;;;2.70;;
72053;SDS011;59918;51.280;7.950;2023-10-19T14:03:15;5.20;;;1.90;;
72053;SDS011;59918;51.280;7.950;2023-10-19T14:05:44;6.03;;;2.20;;
72053;SDS011;59918;51.280;7.950;2023-10-19T14:08:10;5.90;;;2.25;;
72053;SDS011;59918;51.280;7.950;2023-10-19T14:10:39;10.80;;;2.42;;
72053;SDS011;59918;51.280;7.950;2023-10-19T14:13:05;5.95;;;2.35;;
72053;SDS011;59918;51.280;7.950;2023-10-19T14:15:32;5.97;;;2.40;;
72053;SDS011;59918;51.280;7.950;2023-10-19T14:17:58;8.27;;;2.45;;
72053;SDS011;59918;51.280;7.950;2023-10-19T14:20:23;10.13;;;2.80;;
72053;SDS011;59918;51.280;7.950;2023-10-19T14:22:49;5.97;;;2.88;;
72053;SDS011;59918;51.280;7.950;2023-10-19T14:25:15;10.68;;;3.25;;
72053;SDS011;59918;51.280;7.950;2023-10-19T14:27:44;8.55;;;3.53;;
72053;SDS011;59918;51.280;7.950;2023-10-19T14:30:11;8.55;;;3.22;;
72053;SDS011;59918;51.280;7.950;2023-10-19T14:32:39;10.70;;;2.75;;
72053;SDS011;59918;51.280;7.950;2023-10-19T14:35:05;7.75;;;3.38;;
72053;SDS011;59918;51.280;7.950;2023-10-19T14:37:30;10.40;;;3.67;;
72053;SDS011;59918;51.280;7.950;2023-10-19T14:39:56;11.15;;;3.83;;
72053;SDS011;59918;51.280;7.950;2023-10-19T14:42:21;9.55;;;3.58;;
72053;SDS011;59918;51.280;7.950;2023-10-19T14:44:46;7.72;;;3.60;;
72053;SDS011;59918;51.280;7.950;2023-10-19T14:47:11;12.50;;;3.80;;
72053;SDS011;59918;51.280;7.950;2023-10-19T14:49:37;8.65;;;3.90;;